Time;durP1;ratioP1;P1;durP2;ratioP2;P2;SDS_P1;SDS_P2;PMS_P1;PMS_P2;Temp;Humidity;BMP_temperature;BMP_pressure;BME280_temperature;BME280_humidity;BME280_pressure;Samples;Min_cycle;Max_cycle;Signal;HPM_P1;HPM_P2
2022/06/15 00:00:34;;;;;;;7.40;3.58;;;12.80;99.90;;;;;;5114224;28;20055;-52
2022/06/15 00:03:00;;;;;;;4.32;3.40;;;12.80;99.90;;;;;;5113740;28;20084;-52
2022/06/15 00:05:26;;;;;;;5.18;3.38;;;12.80;99.90;;;;;;5114042;28;20090;-52
2022/06/15 00:07:52;;;;;;;6.38;3.15;;;12.70;99.90;;;;;;5113706;28;20047;-51
2022/06/15 00:10:19;;;;;;;8.73;4.07;;;12.70;99.90;;;;;;5113725;28;20055;-50
2022/06/15 00:12:44;;;;;;;6.22;3.17;;;12.70;99.90;;;;;;5113675;28;20413;-48
2022/06/15 00:15:10;;;;;;;5.47;3.22;;;12.70;99.90;;;;;;5114046;28;20044;-48
2022/06/15 00:17:36;;;;;;;5.28;3.33;;;12.60;99.90;;;;;;5113672;28;20043;-48
2022/06/15 00:20:03;;;;;;;5.50;3.30;;;12.60;99.90;;;;;;5113735;28;20039;-51
2022/06/15 00:22:28;;;;;;;10.23;3.67;;;12.60;99.90;;;;;;5113880;28;20048;-52
2022/06/15 00:24:54;;;;;;;6.55;3.38;;;12.60;99.90;;;;;;5114180;28;20093;-50
2022/06/15 00:27:20;;;;;;;4.53;3.55;;;12.60;99.90;;;;;;5113031;28;20032;-50
2022/06/15 00:29:45;;;;;;;6.43;3.97;;;12.50;99.90;;;;;;5095607;28;20096;-48
2022/06/15 00:32:11;;;;;;;11.68;4.10;;;12.50;99.90;;;;;;5113236;28;20048;-53
2022/06/15 00:34:37;;;;;;;9.00;3.83;;;12.50;99.90;;;;;;5113295;28;20044;-51
2022/06/15 00:37:05;;;;;;;6.78;3.90;;;;;;;;;;5114042;28;20043;-53
2022/06/15 00:39:30;;;;;;;5.00;3.50;;;12.40;99.90;;;;;;5114061;28;20039;-49
2022/06/15 00:41:56;;;;;;;12.00;4.03;;;12.40;99.90;;;;;;5113146;28;20772;-52
2022/06/15 00:44:22;;;;;;;9.43;3.80;;;12.40;99.90;;;;;;5113579;28;20047;-52
2022/06/15 00:47:00;;;;;;;4.93;4.00;;;12.40;99.90;;;;;;5112785;28;20044;-52
2022/06/15 00:49:35;;;;;;;5.32;3.97;;;12.30;99.90;;;;;;5113079;28;20081;-51
2022/06/15 00:52:07;;;;;;;6.72;4.18;;;12.30;99.90;;;;;;5112994;28;20051;-53
2022/06/15 00:54:33;;;;;;;4.72;3.88;;;12.30;99.90;;;;;;5113217;28;20126;-50
2022/06/15 00:57:01;;;;;;;9.30;3.65;;;12.20;99.90;;;;;;5113443;28;20043;-48
2022/06/15 00:59:35;;;;;;;;;;;12.20;99.90;;;;;;5113957;28;20042;-50
2022/06/15 01:02:01;;;;;;;5.32;3.40;;;12.10;99.90;;;;;;5112817;28;20311;-50
2022/06/15 01:04:35;;;;;;;7.72;4.10;;;12.10;99.90;;;;;;5112539;28;20047;-49
2022/06/15 01:07:36;;;;;;;5.55;4.07;;;12.10;99.90;;;;;;5113347;28;20039;-49
2022/06/15 01:10:10;;;;;;;6.13;4.18;;;12.10;99.90;;;;;;5113078;28;20040;-52
2022/06/15 01:13:01;;;;;;;7.28;4.05;;;12.00;99.90;;;;;;5113007;28;20048;-51
2022/06/15 01:15:41;;;;;;;7.15;3.80;;;12.00;99.90;;;;;;5113053;28;20080;-51
2022/06/15 01:18:29;;;;;;;9.82;4.13;;;12.00;99.90;;;;;;5112777;28;20043;-52
2022/06/15 01:21:04;;;;;;;7.72;4.07;;;12.00;99.90;;;;;;5113154;28;20055;-53
2022/06/15 01:23:43;;;;;;;7.38;4.10;;;12.00;99.90;;;;;;5112840;28;20075;-48
2022/06/15 01:26:28;;;;;;;5.15;3.92;;;11.90;99.90;;;;;;5112822;28;20105;-52
2022/06/15 01:28:56;;;;;;;8.50;4.47;;;11.90;99.90;;;;;;5112393;28;20472;-52
2022/06/15 01:31:26;;;;;;;6.15;4.32;;;11.90;99.90;;;;;;5112971;28;20048;-50
2022/06/15 01:34:09;;;;;;;8.68;4.80;;;11.80;99.90;;;;;;5112262;28;20374;-50
2022/06/15 01:36:40;;;;;;;7.97;4.30;;;11.80;99.90;;;;;;5112959;28;20066;-48
2022/06/15 01:39:14;;;;;;;8.65;4.47;;;11.80;99.90;;;;;;5112758;28;20036;-49
2022/06/15 01:41:42;;;;;;;9.73;4.72;;;11.80;99.90;;;;;;5112376;28;20121;-53
2022/06/15 01:44:14;;;;;;;8.73;4.40;;;11.80;99.90;;;;;;5112525;28;20063;-51
2022/06/15 01:46:44;;;;;;;8.32;4.15;;;11.70;99.90;;;;;;5112950;28;20046;-48
2022/06/15 01:49:14;;;;;;;6.75;4.47;;;;;;;;;;5113097;28;20031;-49
2022/06/15 01:51:43;;;;;;;7.00;3.83;;;11.60;99.90;;;;;;5094386;28;20096;-51
2022/06/15 01:54:12;;;;;;;5.28;4.43;;;11.60;99.90;;;;;;5112739;28;20046;-53
2022/06/15 01:56:44;;;;;;;6.30;4.60;;;11.60;99.90;;;;;;5112977;28;20055;-48
2022/06/15 01:59:29;;;;;;;5.65;4.43;;;;;;;;;;5112152;28;20039;-48
2022/06/15 02:02:06;;;;;;;6.20;4.40;;;11.50;99.90;;;;;;5112801;28;20165;-50
2022/06/15 02:05:20;;;;;;;9.02;4.97;;;11.50;99.90;;;;;;5113559;28;20092;-50
2022/06/15 02:07:57;;;;;;;8.05;4.57;;;11.50;99.90;;;;;;5115966;28;20048;-49
2022/06/15 02:10:27;;;;;;;8.13;4.65;;;11.40;99.90;;;;;;5115979;28;20482;-52
2022/06/15 02:12:57;;;;;;;7.88;4.97;;;11.40;99.90;;;;;;5115551;28;20040;-49
2022/06/15 02:15:25;;;;;;;7.22;4.65;;;11.40;99.90;;;;;;5116728;28;20043;-49
2022/06/15 02:17:53;;;;;;;9.48;4.85;;;11.40;99.90;;;;;;5116342;28;20079;-48
2022/06/15 02:20:28;;;;;;;;;;;11.30;99.90;;;;;;5116423;28;20096;-48
2022/06/15 02:22:58;;;;;;;8.52;5.15;;;11.30;99.90;;;;;;5097048;28;19959;-50
2022/06/15 02:25:27;;;;;;;7.65;4.95;;;11.30;99.90;;;;;;5115789;28;20043;-52
2022/06/15 02:27:53;;;;;;;7.22;4.90;;;11.30;99.90;;;;;;5115975;28;20050;-49
2022/06/15 02:30:24;;;;;;;7.35;4.88;;;11.20;99.90;;;;;;5115987;28;20390;-48
2022/06/15 02:32:51;;;;;;;8.18;5.18;;;11.20;99.90;;;;;;5115330;28;20071;-48
2022/06/15 02:35:18;;;;;;;9.10;5.23;;;11.20;99.90;;;;;;5097570;28;20043;-48
2022/06/15 02:37:45;;;;;;;10.85;4.90;;;11.20;99.90;;;;;;5115861;28;20402;-49
2022/06/15 02:40:17;;;;;;;8.40;5.43;;;11.10;99.90;;;;;;5115729;28;20093;-48
2022/06/15 02:42:45;;;;;;;8.30;4.95;;;11.10;99.90;;;;;;5115072;28;20115;-48
2022/06/15 02:45:41;;;;;;;9.82;5.22;;;11.10;99.90;;;;;;5115791;28;20074;-48
2022/06/15 02:48:09;;;;;;;9.43;5.30;;;11.10;99.90;;;;;;5112917;28;20051;-48
2022/06/15 02:51:00;;;;;;;10.27;5.53;;;11.10;99.90;;;;;;5115574;28;20040;-48
2022/06/15 02:53:29;;;;;;;6.15;5.50;;;11.10;99.90;;;;;;5114963;28;20044;-49
2022/06/15 02:55:57;;;;;;;9.30;5.43;;;11.10;99.90;;;;;;5115154;28;20382;-48
2022/06/15 02:58:37;;;;;;;6.63;5.60;;;11.00;99.90;;;;;;5115350;28;20036;-48
2022/06/15 03:01:03;;;;;;;6.65;5.32;;;11.10;99.90;;;;;;5115352;28;20118;-50
2022/06/15 03:03:30;;;;;;;8.68;5.43;;;11.00;99.90;;;;;;5114546;28;20382;-48
2022/06/15 03:05:56;;;;;;;9.10;5.65;;;11.00;99.90;;;;;;5115459;28;20040;-49
2022/06/15 03:08:22;;;;;;;7.63;5.80;;;11.00;99.90;;;;;;5114719;28;20040;-48
2022/06/15 03:10:53;;;;;;;7.03;5.65;;;11.00;99.90;;;;;;5114972;28;20043;-48
2022/06/15 03:13:19;;;;;;;9.90;5.57;;;11.00;99.90;;;;;;5114543;28;20082;-52
2022/06/15 03:15:46;;;;;;;8.68;5.97;;;11.00;99.90;;;;;;5114931;28;20048;-51
2022/06/15 03:18:11;;;;;;;6.57;5.63;;;11.00;99.90;;;;;;5114799;28;20031;-49
2022/06/15 03:20:37;;;;;;;7.40;5.68;;;11.00;99.90;;;;;;5114731;28;20036;-49
2022/06/15 03:23:06;;;;;;;7.97;6.03;;;10.90;99.90;;;;;;5096614;28;20055;-51
2022/06/15 03:25:32;;;;;;;9.38;5.65;;;11.00;99.90;;;;;;5114117;28;20051;-49
2022/06/15 03:27:58;;;;;;;10.88;5.57;;;10.90;99.90;;;;;;5114674;28;20042;-48
2022/06/15 03:30:23;;;;;;;10.40;6.60;;;11.00;99.90;;;;;;5113949;28;20044;-50
2022/06/15 03:32:49;;;;;;;8.35;5.68;;;11.00;99.90;;;;;;5114751;28;20039;-49
2022/06/15 03:35:15;;;;;;;7.30;5.95;;;;;;;;;;5096546;28;20118;-50
2022/06/15 03:37:41;;;;;;;10.02;6.20;;;11.00;99.90;;;;;;5114626;28;20400;-51
2022/06/15 03:40:09;;;;;;;10.85;6.10;;;11.00;99.90;;;;;;5096389;28;20044;-49
2022/06/15 03:42:36;;;;;;;9.18;6.35;;;11.00;99.90;;;;;;5114071;28;20516;-48
2022/06/15 03:45:03;;;;;;;10.43;6.40;;;11.00;99.90;;;;;;5114897;28;20036;-48
2022/06/15 03:47:29;;;;;;;6.17;5.57;;;11.10;99.90;;;;;;5114502;28;20093;-49
2022/06/15 03:49:55;;;;;;;9.55;6.05;;;11.10;99.90;;;;;;5095949;28;20048;-49
2022/06/15 03:52:24;;;;;;;9.77;6.18;;;11.10;99.90;;;;;;5113347;28;20106;-48
2022/06/15 03:54:50;;;;;;;8.50;5.97;;;11.10;99.90;;;;;;5095865;28;20055;-48
2022/06/15 03:57:19;;;;;;;7.43;5.60;;;11.20;99.90;;;;;;5113903;28;20443;-52
2022/06/15 03:59:45;;;;;;;8.07;6.05;;;11.20;99.90;;;;;;5114132;28;20097;-49
2022/06/15 04:02:11;;;;;;;9.07;6.55;;;11.20;99.90;;;;;;5113487;28;20443;-52
2022/06/15 04:04:37;;;;;;;8.73;6.28;;;11.30;99.90;;;;;;5095977;28;20074;-50
2022/06/15 04:07:04;;;;;;;9.63;6.07;;;11.30;99.90;;;;;;5114019;28;20071;-48
2022/06/15 04:09:29;;;;;;;11.25;6.40;;;11.40;99.90;;;;;;5113994;28;20047;-49
2022/06/15 04:11:59;;;;;;;8.73;6.25;;;11.40;99.90;;;;;;5113485;28;20036;-49
2022/06/15 04:14:31;;;;;;;8.60;6.15;;;11.40;99.90;;;;;;5113629;28;20039;-49
2022/06/15 04:16:57;;;;;;;9.57;6.22;;;11.50;99.90;;;;;;5094721;28;20112;-49
2022/06/15 04:19:26;;;;;;;6.80;6.10;;;11.50;99.90;;;;;;5113927;28;20436;-51
2022/06/15 04:21:52;;;;;;;9.85;6.20;;;;;;;;;;5113915;28;20039;-51
2022/06/15 04:24:20;;;;;;;8.75;6.43;;;11.60;99.90;;;;;;5113827;28;20046;-50
2022/06/15 04:26:47;;;;;;;9.97;6.07;;;11.70;99.90;;;;;;5113264;28;20549;-49
2022/06/15 04:29:13;;;;;;;7.05;6.35;;;11.70;99.90;;;;;;5113701;28;20330;-52
2022/06/15 04:31:39;;;;;;;7.93;6.72;;;11.80;99.90;;;;;;5113785;28;20043;-50
2022/06/15 04:34:06;;;;;;;8.80;6.28;;;11.90;99.90;;;;;;5113049;28;20039;-52
2022/06/15 04:36:32;;;;;;;11.67;7.10;;;12.70;99.90;;;;;;5113823;28;20130;-53
2022/06/15 04:38:58;;;;;;;9.00;6.25;;;13.90;99.90;;;;;;5113809;28;20471;-51
2022/06/15 04:41:24;;;;;;;11.43;6.20;;;15.00;99.90;;;;;;5113355;28;20127;-53
2022/06/15 04:43:50;;;;;;;10.98;5.90;;;15.80;99.90;;;;;;5113224;28;20044;-51
2022/06/15 04:46:17;;;;;;;7.80;5.47;;;16.70;99.90;;;;;;5113032;28;20051;-49
2022/06/15 04:48:42;;;;;;;6.90;5.40;;;17.40;99.90;;;;;;5095456;28;20521;-49
2022/06/15 04:51:13;;;;;;;7.75;5.50;;;18.50;99.90;;;;;;5112916;28;20123;-52
2022/06/15 04:53:39;;;;;;;8.95;5.40;;;18.70;99.90;;;;;;5112606;28;20047;-52
2022/06/15 04:56:05;;;;;;;7.80;5.18;;;18.80;99.90;;;;;;5112397;28;20481;-53
2022/06/15 04:58:31;;;;;;;7.70;4.95;;;18.80;99.90;;;;;;5113097;28;20036;-52
2022/06/15 05:00:57;;;;;;;7.43;5.30;;;;;;;;;;5112987;28;20047;-50
2022/06/15 05:03:23;;;;;;;6.70;4.68;;;19.50;99.90;;;;;;5113435;28;20122;-52
2022/06/15 05:05:48;;;;;;;5.90;5.30;;;20.00;99.90;;;;;;5112584;28;20511;-51
2022/06/15 05:08:14;;;;;;;6.82;4.72;;;20.10;99.90;;;;;;5112832;28;20039;-49
2022/06/15 05:10:40;;;;;;;7.07;5.03;;;20.50;99.90;;;;;;5112311;28;20050;-49
2022/06/15 05:13:05;;;;;;;7.75;5.05;;;20.50;99.90;;;;;;5113197;28;20123;-49
2022/06/15 05:15:31;;;;;;;8.65;5.40;;;20.90;99.90;;;;;;5078028;28;20046;-50
2022/06/15 05:18:05;;;;;;;7.22;5.47;;;21.20;99.90;;;;;;5112655;28;20040;-50
2022/06/15 05:20:31;;;;;;;8.73;5.38;;;21.20;99.90;;;;;;5112655;28;20047;-49
2022/06/15 05:22:56;;;;;;;8.93;5.18;;;21.50;99.90;;;;;;5112798;28;20044;-53
2022/06/15 05:25:23;;;;;;;7.32;5.55;;;21.60;99.90;;;;;;5113255;28;20040;-52
2022/06/15 05:27:49;;;;;;;8.38;5.25;;;21.80;99.90;;;;;;5113084;28;20036;-50
2022/06/15 05:30:14;;;;;;;7.70;5.40;;;21.50;99.90;;;;;;5113275;28;20043;-49
2022/06/15 05:32:40;;;;;;;9.55;5.32;;;21.50;99.90;;;;;;5112748;28;20046;-50
2022/06/15 05:35:06;;;;;;;6.13;4.82;;;21.80;99.90;;;;;;5112325;28;20068;-52
2022/06/15 05:37:32;;;;;;;8.90;5.32;;;22.10;99.90;;;;;;5094760;28;20112;-51
2022/06/15 05:39:58;;;;;;;10.10;5.05;;;22.00;99.90;;;;;;5114662;28;20044;-51
2022/06/15 05:42:28;;;;;;;8.30;5.13;;;22.10;99.50;;;;;;5116972;28;20044;-50
2022/06/15 05:44:54;;;;;;;5.20;4.43;;;22.40;99.00;;;;;;5116626;28;20043;-49
2022/06/15 05:47:19;;;;;;;10.35;5.53;;;23.00;99.20;;;;;;5116661;28;20050;-49
2022/06/15 05:49:45;;;;;;;5.45;4.82;;;23.20;96.80;;;;;;5116314;28;20043;-52
2022/06/15 05:52:11;;;;;;;7.55;5.28;;;;;;;;;;5097513;28;20048;-52
2022/06/15 05:54:37;;;;;;;5.53;4.97;;;23.50;95.20;;;;;;5116761;28;20055;-49
2022/06/15 05:57:20;;;;;;;9.70;5.22;;;23.30;93.70;;;;;;5116270;28;20043;-48
2022/06/15 05:59:47;;;;;;;7.95;5.05;;;23.70;94.60;;;;;;5116297;28;20100;-47
2022/06/15 06:02:14;;;;;;;8.00;4.80;;;23.20;94.10;;;;;;5116401;28;20097;-49
2022/06/15 06:04:40;;;;;;;8.25;5.15;;;23.10;92.30;;;;;;5116280;28;20059;-51
2022/06/15 06:07:05;;;;;;;7.18;4.63;;;22.90;93.40;;;;;;5116526;28;20036;-50
2022/06/15 06:09:32;;;;;;;8.05;4.70;;;22.90;94.40;;;;;;5116569;28;20040;-51
2022/06/15 06:11:57;;;;;;;7.60;4.47;;;23.40;93.10;;;;;;5098269;28;20042;-52
2022/06/15 06:14:23;;;;;;;5.63;4.82;;;23.20;93.70;;;;;;5115881;28;20036;-51
2022/06/15 06:16:49;;;;;;;8.27;4.28;;;23.30;93.40;;;;;;5115527;28;20485;-48
2022/06/15 06:19:14;;;;;;;5.97;4.45;;;23.70;92.40;;;;;;5115800;28;20081;-52
2022/06/15 06:21:42;;;;;;;6.85;4.50;;;23.50;92.20;;;;;;5116179;28;20047;-52
2022/06/15 06:24:08;;;;;;;6.55;4.47;;;23.70;91.30;;;;;;5116242;28;20421;-51
2022/06/15 06:26:35;;;;;;;6.78;4.80;;;24.10;91.10;;;;;;5115738;28;20079;-51
2022/06/15 06:29:01;;;;;;;8.50;4.75;;;23.90;91.50;;;;;;5115873;28;20405;-50
2022/06/15 06:31:27;;;;;;;6.18;4.90;;;24.50;91.60;;;;;;5115276;28;20049;-49
2022/06/15 06:33:53;;;;;;;6.20;4.43;;;24.70;91.10;;;;;;5115760;28;20432;-52
2022/06/15 06:36:32;;;;;;;7.03;4.90;;;25.10;90.00;;;;;;5115906;28;20049;-49
2022/06/15 06:39:00;;;;;;;7.18;5.00;;;25.00;85.40;;;;;;5115900;28;20491;-50
2022/06/15 06:41:27;;;;;;;8.57;5.13;;;24.80;84.40;;;;;;5115830;28;20075;-49
2022/06/15 06:43:55;;;;;;;;;;;24.00;82.90;;;;;;5097244;28;20047;-50
2022/06/15 06:46:21;;;;;;;6.18;4.20;;;23.90;84.30;;;;;;5115440;28;19919;-52
2022/06/15 06:48:47;;;;;;;6.05;3.80;;;23.80;82.10;;;;;;5115102;28;20036;-50
2022/06/15 06:51:13;;;;;;;4.45;3.60;;;24.20;84.40;;;;;;5096028;28;20446;-53
2022/06/15 06:53:38;;;;;;;6.97;3.67;;;24.50;84.20;;;;;;5115082;28;20051;-53
2022/06/15 06:56:08;;;;;;;4.88;3.53;;;24.30;82.20;;;;;;5097175;28;20529;-50
2022/06/15 06:58:34;;;;;;;4.85;3.78;;;24.00;81.30;;;;;;5115593;28;20046;-50
2022/06/15 07:01:00;;;;;;;4.75;4.13;;;24.00;81.10;;;;;;5115255;28;20039;-50
2022/06/15 07:03:26;;;;;;;5.78;4.05;;;24.00;82.20;;;;;;5115309;28;20052;-53
2022/06/15 07:05:52;;;;;;;7.63;4.15;;;;;;;;;;5115054;28;20070;-52
2022/06/15 07:08:18;;;;;;;6.15;3.78;;;23.90;82.30;;;;;;5115652;28;20088;-52
2022/06/15 07:10:43;;;;;;;5.22;3.30;;;24.10;82.70;;;;;;5115145;28;20039;-51
2022/06/15 07:13:09;;;;;;;5.25;3.78;;;24.10;85.20;;;;;;5115189;28;20042;-52
2022/06/15 07:15:36;;;;;;;6.40;4.00;;;24.50;84.80;;;;;;5114426;28;20054;-50
2022/06/15 07:18:03;;;;;;;6.05;3.50;;;24.20;81.80;;;;;;5115148;28;20513;-51
2022/06/15 07:20:30;;;;;;;6.07;4.22;;;24.10;82.20;;;;;;5096982;28;20112;-51
2022/06/15 07:22:56;;;;;;;7.85;3.55;;;24.90;82.50;;;;;;5114734;28;20099;-50
2022/06/15 07:25:22;;;;;;;6.38;3.35;;;24.50;78.80;;;;;;5114782;28;20127;-50
2022/06/15 07:27:48;;;;;;;8.38;3.35;;;23.90;81.20;;;;;;5114253;28;20050;-53
2022/06/15 07:30:19;;;;;;;5.60;3.57;;;24.00;81.70;;;;;;5114832;28;20042;-50
2022/06/15 07:32:45;;;;;;;5.18;3.47;;;23.70;81.40;;;;;;5114255;28;20040;-53
2022/06/15 07:35:18;;;;;;;4.28;3.13;;;24.20;83.80;;;;;;5114282;28;20047;-52
2022/06/15 07:37:45;;;;;;;5.18;3.20;;;25.00;81.90;;;;;;5114224;28;20118;-51
2022/06/15 07:40:11;;;;;;;6.22;3.63;;;24.60;80.80;;;;;;5115056;28;20059;-52
2022/06/15 07:42:37;;;;;;;5.30;3.30;;;24.40;82.00;;;;;;5095566;28;20036;-50
2022/06/15 07:45:03;;;;;;;6.07;3.40;;;23.80;79.80;;;;;;5114063;28;20204;-50
2022/06/15 07:50:18;;;;;;;5.72;2.95;;;22.50;85.90;;;;;;5051454;28;20045;-49
2022/06/15 07:52:46;;;;;;;5.72;2.97;;;22.20;86.80;;;;;;5034675;28;20053;-50
2022/06/15 07:55:13;;;;;;;5.10;2.55;;;;;;;;;;5051459;28;20136;-49
2022/06/15 07:57:39;;;;;;;4.97;3.15;;;21.90;88.40;;;;;;5051411;28;20049;-49
2022/06/15 08:00:08;;;;;;;6.10;2.67;;;21.70;90.90;;;;;;5051103;28;20045;-52
2022/06/15 08:02:33;;;;;;;7.30;2.60;;;21.60;90.20;;;;;;5049986;28;20136;-54
2022/06/15 08:04:59;;;;;;;4.30;2.33;;;21.50;89.90;;;;;;5050640;28;20486;-52
2022/06/15 08:07:26;;;;;;;4.50;2.45;;;21.60;90.60;;;;;;5034171;28;20566;-51
2022/06/15 08:09:52;;;;;;;4.85;2.42;;;21.10;90.50;;;;;;5051047;28;20124;-49
2022/06/15 08:12:19;;;;;;;3.85;2.28;;;21.00;91.00;;;;;;5034595;28;20075;-51
2022/06/15 08:14:49;;;;;;;6.57;3.03;;;21.10;91.30;;;;;;5050901;28;20397;-49
2022/06/15 08:17:20;;;;;;;4.50;2.10;;;21.40;93.20;;;;;;5050909;28;20049;-52
2022/06/15 08:19:51;;;;;;;3.60;1.83;;;20.90;89.40;;;;;;5051060;28;20045;-52
2022/06/15 08:22:17;;;;;;;2.72;1.80;;;21.30;90.90;;;;;;5050882;28;20204;-52
2022/06/15 08:24:45;;;;;;;3.30;1.60;;;21.50;89.80;;;;;;5050760;28;20045;-50
2022/06/15 08:27:14;;;;;;;3.42;1.92;;;21.70;87.60;;;;;;5078697;28;20051;-51
2022/06/15 08:29:40;;;;;;;4.32;1.98;;;21.80;86.20;;;;;;5112590;28;20100;-49
2022/06/15 08:32:07;;;;;;;7.82;2.22;;;21.70;85.40;;;;;;5113228;28;20062;-51
2022/06/15 08:34:37;;;;;;;4.88;2.05;;;22.00;88.30;;;;;;5113119;28;20055;-49
2022/06/15 08:37:09;;;;;;;5.28;2.10;;;21.90;88.30;;;;;;5094752;28;20513;-48
2022/06/15 08:39:35;;;;;;;5.90;1.80;;;21.80;88.60;;;;;;5112410;28;20407;-51
2022/06/15 08:42:29;;;;;;;4.60;1.40;;;21.90;84.20;;;;;;5093974;28;20055;-52
2022/06/15 08:45:11;;;;;;;3.38;1.55;;;21.40;80.60;;;;;;5112921;28;20562;-50
2022/06/15 08:47:49;;;;;;;3.30;1.58;;;21.20;80.80;;;;;;5112741;28;20562;-52
2022/06/15 08:50:41;;;;;;;3.53;1.42;;;21.20;82.80;;;;;;5094846;28;20046;-50
2022/06/15 08:53:17;;;;;;;4.63;1.88;;;20.60;81.40;;;;;;5112836;28;20052;-52
2022/06/15 08:56:25;;;;;;;3.22;1.10;;;20.80;81.60;;;;;;5113120;28;20054;-52
2022/06/15 08:59:08;;;;;;;3.05;1.30;;;21.10;82.60;;;;;;5070485;28;20044;-48
2022/06/15 09:01:52;;;;;;;4.22;1.30;;;21.50;84.00;;;;;;5070495;28;20045;-50
2022/06/15 09:04:26;;;;;;;2.08;1.30;;;21.50;82.70;;;;;;5070635;28;20090;-50
2022/06/15 09:07:13;;;;;;;5.78;1.85;;;21.50;81.60;;;;;;5070518;28;20433;-50
2022/06/15 09:09:44;;;;;;;3.35;1.52;;;21.90;82.40;;;;;;5070534;28;20053;-51
2022/06/15 09:12:49;;;;;;;3.05;1.30;;;21.60;80.50;;;;;;5070312;28;20094;-51
2022/06/15 09:15:27;;;;;;;2.45;1.40;;;22.10;81.50;;;;;;5074073;28;20059;-53
2022/06/15 09:17:55;;;;;;;4.55;1.45;;;21.90;78.70;;;;;;5074641;28;20099;-52
2022/06/15 09:20:28;;;;;;;4.35;1.58;;;22.00;79.40;;;;;;5074362;28;20083;-49
2022/06/15 09:22:59;;;;;;;3.70;1.30;;;21.90;78.00;;;;;;5074431;28;20049;-53
2022/06/15 09:25:40;;;;;;;4.13;1.50;;;22.00;79.50;;;;;;5074350;28;20049;-50
2022/06/15 09:28:26;;;;;;;2.65;1.35;;;21.90;77.80;;;;;;5074436;28;20044;-51
2022/06/15 09:30:54;;;;;;;4.63;1.45;;;21.70;78.40;;;;;;5117191;28;20046;-52
2022/06/15 09:33:52;;;;;;;2.65;1.58;;;21.70;78.10;;;;;;5116327;28;20443;-52
2022/06/15 09:36:24;;;;;;;4.38;1.58;;;21.50;78.00;;;;;;5115972;28;20585;-49
2022/06/15 09:38:50;;;;;;;2.10;1.45;;;21.60;79.30;;;;;;5116826;28;20122;-51
2022/06/15 09:41:26;;;;;;;2.45;1.30;;;21.70;79.30;;;;;;5116847;28;20128;-53
2022/06/15 09:43:55;;;;;;;3.13;1.55;;;22.00;78.00;;;;;;5117212;28;20048;-52
2022/06/15 09:46:28;;;;;;;3.22;1.50;;;22.00;77.30;;;;;;5116741;28;20055;-50
2022/06/15 09:49:14;;;;;;;3.53;1.90;;;22.20;77.80;;;;;;5116896;28;20051;-53
2022/06/15 09:51:52;;;;;;;3.65;1.40;;;22.20;78.30;;;;;;5116019;28;20066;-52
2022/06/15 09:54:23;;;;;;;5.22;1.50;;;22.10;78.00;;;;;;5116435;28;20050;-53
2022/06/15 09:56:50;;;;;;;3.13;1.48;;;21.80;75.60;;;;;;5116071;28;20119;-52
2022/06/15 09:59:19;;;;;;;3.38;1.20;;;22.30;78.20;;;;;;5115950;28;20067;-52
2022/06/15 10:01:45;;;;;;;2.97;1.42;;;22.50;76.80;;;;;;5116442;28;20046;-52
2022/06/15 10:04:32;;;;;;;1.45;0.98;;;22.50;75.40;;;;;;5115954;28;20545;-51
2022/06/15 10:07:05;;;;;;;2.83;1.25;;;22.30;73.30;;;;;;5081454;28;20043;-52
2022/06/15 10:09:36;;;;;;;2.38;1.35;;;22.20;72.50;;;;;;5116215;28;20052;-49
2022/06/15 10:15:20;;;;;;;2.33;1.17;;;22.40;73.00;;;;;;5116412;28;20425;-54
2022/06/15 10:17:50;;;;;;;9.35;1.60;;;22.60;73.50;;;;;;5098123;28;20114;-52
2022/06/15 10:20:35;;;;;;;3.03;1.40;;;22.50;72.70;;;;;;5116032;28;20557;-49
2022/06/15 10:23:24;;;;;;;2.70;1.42;;;22.80;74.30;;;;;;5115448;28;20036;-52
2022/06/15 10:25:55;;;;;;;3.50;1.30;;;22.80;72.10;;;;;;5115390;28;20062;-49
2022/06/15 10:28:25;;;;;;;2.78;1.25;;;22.90;72.40;;;;;;5097414;28;20035;-51
2022/06/15 10:31:04;;;;;;;4.10;1.67;;;23.20;73.90;;;;;;5116159;28;20039;-50
2022/06/15 10:33:50;;;;;;;3.25;1.25;;;22.80;70.80;;;;;;5115550;28;20497;-47
2022/06/15 10:36:30;;;;;;;2.17;1.17;;;23.00;70.40;;;;;;5115592;28;20084;-49
2022/06/15 10:39:01;;;;;;;1.88;1.30;;;23.00;72.70;;;;;;5115450;28;20400;-49
2022/06/15 10:41:47;;;;;;;3.00;1.30;;;23.10;71.40;;;;;;5115727;28;20371;-49
2022/06/15 10:44:40;;;;;;;2.10;1.20;;;23.20;70.20;;;;;;5115332;28;20036;-50
2022/06/15 10:47:25;;;;;;;1.13;1.00;;;23.30;70.80;;;;;;5115228;28;20438;-52
2022/06/15 10:50:00;;;;;;;2.58;1.17;;;23.40;70.20;;;;;;5097332;28;20075;-53
2022/06/15 10:52:43;;;;;;;2.30;1.20;;;23.60;71.00;;;;;;5113975;28;20073;-54
2022/06/15 11:04:22;;;;;;;2.13;1.08;;;23.70;67.50;;;;;;5114854;28;20040;-53
2022/06/15 11:07:00;;;;;;;2.08;1.15;;;24.10;68.40;;;;;;5115324;28;20122;-50
2022/06/15 11:09:34;;;;;;;2.60;1.48;;;24.20;67.40;;;;;;5096557;28;20508;-49
2022/06/15 11:12:05;;;;;;;2.78;1.48;;;23.90;65.90;;;;;;5115055;28;20043;-49
2022/06/15 11:14:46;;;;;;;2.03;1.13;;;23.70;64.50;;;;;;5115169;28;20051;-52
2022/06/15 11:20:28;;;;;;;2.85;1.05;;;23.90;65.40;;;;;;5114848;28;20120;-49
2022/06/15 11:22:59;;;;;;;2.60;1.23;;;24.00;65.60;;;;;;5096400;28;20096;-50
2022/06/15 11:25:46;;;;;;;2.35;1.10;;;24.10;66.50;;;;;;5096456;28;20058;-49
2022/06/15 11:28:17;;;;;;;2.55;1.25;;;24.00;64.40;;;;;;5114674;28;20075;-49
2022/06/15 11:30:50;;;;;;;2.30;1.10;;;23.90;66.30;;;;;;5114925;28;20043;-52
2022/06/15 11:33:22;;;;;;;2.75;1.52;;;23.80;64.50;;;;;;5114780;28;20042;-49
2022/06/15 11:36:02;;;;;;;2.33;1.05;;;24.10;66.10;;;;;;5114634;28;20047;-52
2022/06/15 11:38:41;;;;;;;1.80;1.08;;;24.20;65.30;;;;;;5114790;28;20035;-51
2022/06/15 11:41:32;;;;;;;1.98;1.33;;;24.40;63.70;;;;;;5114205;28;20043;-52
2022/06/15 11:44:00;;;;;;;4.03;1.20;;;24.30;61.90;;;;;;5114139;28;20043;-52
2022/06/15 11:46:44;;;;;;;3.42;1.38;;;24.00;62.90;;;;;;5114347;28;20039;-52
2022/06/15 11:49:29;;;;;;;4.15;1.30;;;23.90;63.90;;;;;;5096333;28;20477;-51
2022/06/15 11:52:02;;;;;;;2.15;1.15;;;23.80;63.40;;;;;;5113585;28;20470;-52
2022/06/15 11:54:46;;;;;;;2.35;1.33;;;23.90;62.00;;;;;;5114225;28;20108;-49
2022/06/15 11:57:21;;;;;;;2.10;1.20;;;24.20;63.70;;;;;;5095341;28;20043;-53
2022/06/15 11:59:59;;;;;;;3.17;1.33;;;24.20;63.80;;;;;;5114340;28;20149;-54
2022/06/15 12:02:33;;;;;;;3.10;1.50;;;24.10;62.80;;;;;;5113484;28;20051;-52
2022/06/15 12:05:19;;;;;;;2.38;1.27;;;24.30;64.70;;;;;;5114191;28;20081;-50
2022/06/15 12:08:02;;;;;;;1.63;1.10;;;24.30;64.60;;;;;;5114066;28;20044;-48
2022/06/15 12:14:11;;;;;;;3.75;1.40;;;24.20;64.10;;;;;;5110673;28;20047;-49
2022/06/15 12:16:55;;;;;;;2.83;1.20;;;24.00;65.60;;;;;;5114074;28;20079;-52
2022/06/15 12:19:35;;;;;;;1.77;1.33;;;24.20;64.00;;;;;;5113056;28;20592;-50
2022/06/15 12:22:36;;;;;;;2.25;1.30;;;24.30;63.10;;;;;;5113602;28;20044;-52
2022/06/15 12:25:09;;;;;;;4.22;1.23;;;24.30;63.00;;;;;;5111278;28;20086;-51
2022/06/15 12:27:53;;;;;;;2.97;1.25;;;24.20;63.00;;;;;;5113858;28;20047;-51
2022/06/15 12:30:42;;;;;;;3.83;1.40;;;24.50;63.60;;;;;;5113400;28;20046;-51
2022/06/15 12:33:22;;;;;;;2.03;1.25;;;24.30;61.90;;;;;;5113219;28;20447;-49
2022/06/15 12:35:59;;;;;;;2.92;1.30;;;24.20;63.50;;;;;;5113114;28;20039;-53
2022/06/15 12:38:57;;;;;;;5.65;1.20;;;24.00;64.70;;;;;;5112860;28;20043;-51
2022/06/15 12:44:22;;;;;;;3.85;1.30;;;24.30;64.10;;;;;;5113245;28;20136;-52
2022/06/15 12:46:51;;;;;;;4.13;1.60;;;24.40;63.20;;;;;;5094977;28;20121;-49
2022/06/15 12:49:30;;;;;;;3.45;1.27;;;24.50;65.10;;;;;;5094503;28;20043;-50
2022/06/15 12:52:11;;;;;;;2.45;1.30;;;24.60;64.40;;;;;;5112680;28;20054;-49
2022/06/15 12:54:54;;;;;;;1.60;0.98;;;24.80;62.80;;;;;;5094633;28;20387;-53
2022/06/15 12:57:28;;;;;;;2.40;1.25;;;25.00;63.20;;;;;;5113133;28;20050;-52
2022/06/15 13:00:23;;;;;;;2.80;1.30;;;25.00;63.90;;;;;;5112856;28;20044;-48
2022/06/15 13:02:59;;;;;;;2.80;1.73;;;25.10;60.60;;;;;;5085757;28;20409;-49
2022/06/15 13:05:31;;;;;;;3.67;1.27;;;24.90;63.60;;;;;;5112654;28;20043;-49
2022/06/15 13:08:05;;;;;;;2.65;1.63;;;24.90;62.80;;;;;;5113363;28;20118;-50
2022/06/15 13:10:32;;;;;;;2.53;1.50;;;24.50;62.70;;;;;;5112695;28;20129;-49
2022/06/15 13:13:04;;;;;;;2.30;1.20;;;24.50;61.90;;;;;;5113178;28;20383;-49
2022/06/15 13:15:32;;;;;;;4.97;1.92;;;24.80;64.00;;;;;;5094922;28;20133;-51
2022/06/15 13:18:13;;;;;;;3.08;1.60;;;24.60;62.90;;;;;;5113065;28;20394;-50
2022/06/15 13:20:50;;;;;;;3.90;1.80;;;24.80;65.90;;;;;;5112822;28;20039;-52
2022/06/15 13:23:17;;;;;;;1.95;1.63;;;24.80;64.30;;;;;;5113283;28;20044;-52
2022/06/15 13:25:56;;;;;;;3.78;1.65;;;25.00;64.80;;;;;;5113083;28;20042;-52
2022/06/15 13:28:26;;;;;;;3.00;1.80;;;24.80;63.60;;;;;;5112411;28;20378;-52
2022/06/15 13:30:58;;;;;;;3.78;1.50;;;24.70;64.10;;;;;;5113149;28;20050;-52
2022/06/15 13:33:46;;;;;;;2.95;1.67;;;25.00;65.50;;;;;;5112623;28;20036;-51
2022/06/15 13:36:11;;;;;;;2.53;1.60;;;25.00;65.60;;;;;;5112934;28;20035;-52
2022/06/15 13:38:39;;;;;;;2.75;1.80;;;24.80;64.00;;;;;;5112471;28;20494;-52